createdAt,value
2017-12-03T00:00:11.904Z,37.80
2017-12-03T00:02:39.458Z,42.93
2017-12-03T00:05:06.982Z,41.30
2017-12-03T00:07:34.523Z,42.67
2017-12-03T00:10:02.838Z,40.03
2017-12-03T00:12:30.429Z,43.13
2017-12-03T00:14:58.036Z,38.10
2017-12-03T00:17:26.152Z,45.10
2017-12-03T00:19:53.739Z,39.70
2017-12-03T00:22:22.044Z,46.50
2017-12-03T00:24:49.579Z,47.77
2017-12-03T00:27:20.348Z,43.20
2017-12-03T00:29:47.890Z,46.00
2017-12-03T00:32:15.424Z,47.40
2017-12-03T00:34:43.058Z,47.07
2017-12-03T00:37:11.392Z,44.80
2017-12-03T00:39:38.937Z,46.60
2017-12-03T00:42:08.183Z,44.13
2017-12-03T00:44:36.291Z,47.13
2017-12-03T00:47:04.825Z,45.97
2017-12-03T00:49:32.401Z,39.10
2017-12-03T00:51:59.979Z,48.13
2017-12-03T00:54:27.526Z,53.33
2017-12-03T00:56:55.073Z,51.00
2017-12-03T00:59:22.621Z,45.83
2017-12-03T01:01:50.155Z,43.70
2017-12-03T01:04:17.716Z,47.23
2017-12-03T01:06:46.047Z,52.10
2017-12-03T01:09:13.625Z,46.10
2017-12-03T01:11:41.153Z,41.93
2017-12-03T01:14:08.673Z,47.10
2017-12-03T01:16:36.234Z,45.37
2017-12-03T01:19:04.559Z,46.73
2017-12-03T01:21:32.132Z,53.17
2017-12-03T01:23:59.720Z,50.50
2017-12-03T01:26:27.319Z,49.63
2017-12-03T01:28:54.845Z,48.53
2017-12-03T01:31:22.383Z,48.10
2017-12-03T01:33:50.641Z,52.00
2017-12-03T01:36:18.167Z,48.63
2017-12-03T01:38:45.752Z,42.30
2017-12-03T01:41:13.345Z,45.50
2017-12-03T01:43:40.905Z,51.23
2017-12-03T01:46:08.516Z,45.27
2017-12-03T01:48:36.188Z,49.83
2017-12-03T01:51:03.748Z,45.37
2017-12-03T01:53:31.317Z,47.07
2017-12-03T01:55:58.803Z,45.20
2017-12-03T01:58:27.191Z,43.50
2017-12-03T02:00:55.503Z,45.23
2017-12-03T02:03:23.111Z,42.40
2017-12-03T02:05:50.699Z,46.60
2017-12-03T02:08:19.073Z,50.87
2017-12-03T02:10:46.776Z,48.20
2017-12-03T02:13:14.348Z,50.17
2017-12-03T02:15:41.899Z,48.10
2017-12-03T02:18:09.961Z,44.63
2017-12-03T02:20:37.517Z,45.63
2017-12-03T02:23:05.105Z,50.30
2017-12-03T02:25:32.655Z,48.43
2017-12-03T02:28:01.000Z,45.00
2017-12-03T02:30:28.549Z,42.37
2017-12-03T02:32:56.882Z,43.23
2017-12-03T02:35:25.245Z,51.60
2017-12-03T02:37:52.777Z,40.73
2017-12-03T02:40:20.370Z,44.00
2017-12-03T02:42:48.846Z,40.80
2017-12-03T02:45:16.391Z,46.20
2017-12-03T02:47:43.935Z,48.63
2017-12-03T02:50:12.429Z,42.33
2017-12-03T02:52:39.978Z,42.97
2017-12-03T02:55:08.306Z,46.33
2017-12-03T02:57:35.852Z,50.53
2017-12-03T03:00:03.454Z,40.80
2017-12-03T03:02:31.782Z,50.23
2017-12-03T03:04:59.357Z,44.37
2017-12-03T03:07:26.934Z,42.57
2017-12-03T03:09:55.246Z,46.47
2017-12-03T03:12:22.815Z,44.67
2017-12-03T03:14:50.399Z,41.10
2017-12-03T03:17:17.959Z,36.40
2017-12-03T03:19:45.489Z,37.67
2017-12-03T03:22:13.120Z,38.47
2017-12-03T03:24:40.633Z,41.83
2017-12-03T03:27:08.155Z,36.30
2017-12-03T03:29:36.524Z,41.03
2017-12-03T03:32:04.046Z,35.37
2017-12-03T03:34:31.585Z,45.73
2017-12-03T03:36:59.150Z,43.53
2017-12-03T03:39:26.725Z,45.23
2017-12-03T03:41:54.231Z,45.17
2017-12-03T03:44:22.572Z,39.30
2017-12-03T03:46:50.079Z,42.27
2017-12-03T03:49:17.620Z,40.50
2017-12-03T03:51:45.928Z,45.00
2017-12-03T03:54:13.475Z,40.83
2017-12-03T03:56:41.033Z,39.97
2017-12-03T03:59:08.606Z,39.67
2017-12-03T04:01:36.242Z,46.27
2017-12-03T04:04:03.793Z,42.27
2017-12-03T04:06:31.349Z,35.43
2017-12-03T04:08:59.700Z,39.30
2017-12-03T04:11:27.260Z,40.70
2017-12-03T04:13:54.852Z,45.17
2017-12-03T04:16:23.426Z,40.23
2017-12-03T04:18:50.982Z,43.43
2017-12-03T04:21:18.512Z,48.83
2017-12-03T04:23:46.078Z,40.80
2017-12-03T04:26:13.583Z,37.20
2017-12-03T04:28:41.133Z,45.37
2017-12-03T04:31:08.663Z,42.20
2017-12-03T04:33:36.219Z,38.77
2017-12-03T04:36:03.776Z,37.73
2017-12-03T04:38:31.329Z,36.20
2017-12-03T04:40:58.882Z,38.90
2017-12-03T04:43:26.438Z,37.00
2017-12-03T04:45:53.970Z,35.90
2017-12-03T04:48:21.528Z,40.73
2017-12-03T04:50:49.930Z,39.10
2017-12-03T04:53:17.502Z,38.63
2017-12-03T04:55:45.054Z,38.77
2017-12-03T04:58:13.352Z,36.70
2017-12-03T05:00:40.937Z,38.10
2017-12-03T05:03:09.783Z,41.03
2017-12-03T05:05:37.330Z,38.20
2017-12-03T05:08:04.948Z,45.30
2017-12-03T05:10:32.583Z,37.97
2017-12-03T05:13:00.182Z,38.60
2017-12-03T05:15:28.507Z,34.20
2017-12-03T05:17:56.055Z,35.63
2017-12-03T05:20:23.618Z,38.20
2017-12-03T05:22:51.170Z,37.87
2017-12-03T05:25:18.762Z,37.47
2017-12-03T05:27:46.320Z,44.70
2017-12-03T05:30:13.960Z,36.53
2017-12-03T05:32:41.470Z,38.80
2017-12-03T05:35:09.286Z,42.83
2017-12-03T05:37:36.888Z,39.30
2017-12-03T05:40:04.495Z,38.63
2017-12-03T05:42:32.111Z,37.77
2017-12-03T05:44:59.767Z,42.43
2017-12-03T05:47:27.352Z,39.30
2017-12-03T05:49:55.707Z,39.73
2017-12-03T05:52:23.286Z,35.50
2017-12-03T05:54:51.568Z,43.07
2017-12-03T05:57:19.126Z,38.80
2017-12-03T05:59:47.448Z,40.43
2017-12-03T06:02:15.306Z,35.57
2017-12-03T06:04:42.887Z,39.00
2017-12-03T06:07:11.461Z,33.70
2017-12-03T06:09:39.044Z,40.97
2017-12-03T06:12:06.590Z,34.20
2017-12-03T06:14:34.122Z,37.30
2017-12-03T06:17:01.746Z,33.17
2017-12-03T06:19:29.437Z,35.33
2017-12-03T06:21:57.042Z,35.10
2017-12-03T06:24:25.426Z,34.57
2017-12-03T06:26:52.980Z,30.67
2017-12-03T06:29:20.619Z,33.13
2017-12-03T06:31:48.159Z,28.07
2017-12-03T06:34:15.718Z,35.03
2017-12-03T06:36:43.293Z,31.80
2017-12-03T06:39:11.858Z,32.07
2017-12-03T06:41:39.470Z,30.10
2017-12-03T06:44:07.010Z,32.10
2017-12-03T06:46:34.606Z,35.00
2017-12-03T06:49:02.202Z,31.73
2017-12-03T06:51:30.205Z,32.33
2017-12-03T06:53:57.816Z,32.30
2017-12-03T06:56:25.435Z,36.30
2017-12-03T06:58:53.013Z,32.77
2017-12-03T07:01:20.567Z,31.33
2017-12-03T07:03:48.926Z,40.27
2017-12-03T07:06:16.513Z,34.80
2017-12-03T07:08:44.118Z,35.93
2017-12-03T07:11:12.478Z,37.67
2017-12-03T07:13:40.752Z,34.30
2017-12-03T07:16:09.366Z,37.30
2017-12-03T07:18:36.976Z,37.33
2017-12-03T07:21:04.568Z,37.23
2017-12-03T07:23:32.122Z,37.67
2017-12-03T07:25:59.788Z,33.60
2017-12-03T07:28:27.331Z,35.23
2017-12-03T07:30:55.723Z,35.90
2017-12-03T07:33:23.352Z,35.20
2017-12-03T07:35:51.653Z,35.03
2017-12-03T07:38:19.263Z,32.97
2017-12-03T07:40:46.885Z,37.93
2017-12-03T07:43:15.200Z,35.33
2017-12-03T07:45:42.727Z,28.63
2017-12-03T07:48:10.507Z,32.60
2017-12-03T07:50:38.101Z,36.13
2017-12-03T07:53:05.694Z,34.33
2017-12-03T07:55:34.002Z,35.90
2017-12-03T07:58:01.591Z,29.73
2017-12-03T08:00:29.137Z,25.53
2017-12-03T08:02:57.010Z,32.70
2017-12-03T08:05:24.543Z,27.90
2017-12-03T08:07:52.123Z,28.63
2017-12-03T08:10:19.738Z,30.97
2017-12-03T08:12:48.240Z,30.90
2017-12-03T08:15:15.800Z,32.90
2017-12-03T08:17:43.487Z,29.80
2017-12-03T08:20:11.506Z,32.23
2017-12-03T08:22:39.499Z,29.77
2017-12-03T08:25:07.857Z,27.70
2017-12-03T08:27:35.424Z,33.97
2017-12-03T08:30:03.806Z,34.97
2017-12-03T08:32:32.142Z,29.87
2017-12-03T08:34:59.723Z,32.57
2017-12-03T08:37:27.300Z,28.73
2017-12-03T08:39:54.965Z,33.90
2017-12-03T08:42:22.532Z,29.90
2017-12-03T08:44:50.158Z,38.00
2017-12-03T08:47:17.714Z,43.00
2017-12-03T08:49:45.342Z,33.93
2017-12-03T08:52:13.001Z,33.73
2017-12-03T08:54:40.594Z,35.27
2017-12-03T08:57:08.366Z,29.87
2017-12-03T08:59:36.311Z,30.73
2017-12-03T09:02:03.959Z,36.80
2017-12-03T09:04:31.600Z,28.20
2017-12-03T09:06:59.163Z,28.80
2017-12-03T09:09:26.755Z,33.37
2017-12-03T09:11:54.375Z,30.00
2017-12-03T09:14:21.979Z,27.60
2017-12-03T09:16:49.586Z,26.37
2017-12-03T09:19:18.166Z,30.53
2017-12-03T09:21:46.523Z,30.90
2017-12-03T09:24:14.043Z,22.00
2017-12-03T09:26:41.741Z,25.80
2017-12-03T09:29:09.898Z,26.87
2017-12-03T09:31:37.535Z,20.90
2017-12-03T09:34:05.285Z,23.60
2017-12-03T09:36:33.607Z,19.97
2017-12-03T09:39:01.154Z,23.83
2017-12-03T09:41:28.907Z,23.77
2017-12-03T09:43:56.480Z,24.73
2017-12-03T09:46:24.057Z,24.37
2017-12-03T09:48:51.631Z,28.67
2017-12-03T09:51:21.662Z,24.70
2017-12-03T09:53:50.031Z,18.70
2017-12-03T09:56:17.625Z,20.23
2017-12-03T09:58:45.265Z,23.00
2017-12-03T10:01:14.357Z,20.37
2017-12-03T10:03:42.020Z,19.70
2017-12-03T10:06:10.211Z,19.27
2017-12-03T10:08:38.242Z,20.50
2017-12-03T10:11:06.421Z,14.60
2017-12-03T10:13:34.070Z,14.57
2017-12-03T10:16:01.617Z,17.93
2017-12-03T10:18:29.164Z,14.93
2017-12-03T10:20:57.857Z,19.07
2017-12-03T10:23:25.395Z,15.97
2017-12-03T10:25:52.935Z,15.80
2017-12-03T10:28:21.573Z,15.23
2017-12-03T10:30:49.356Z,15.17
2017-12-03T10:33:16.906Z,20.73
2017-12-03T10:35:45.442Z,13.70
2017-12-03T10:38:20.804Z,13.40
2017-12-03T10:40:49.138Z,12.57
2017-12-03T10:43:16.743Z,14.70
2017-12-03T10:45:44.287Z,14.37
2017-12-03T10:48:12.622Z,11.67
2017-12-03T10:50:40.174Z,12.60
2017-12-03T10:53:08.507Z,12.73
2017-12-03T10:55:36.197Z,8.50
2017-12-03T10:58:04.455Z,9.20
2017-12-03T11:00:35.874Z,11.20
2017-12-03T11:03:04.385Z,9.30
2017-12-03T11:05:31.991Z,12.33
2017-12-03T11:07:59.587Z,12.40
2017-12-03T11:10:28.059Z,10.53
2017-12-03T11:12:55.654Z,9.80
2017-12-03T11:15:23.219Z,13.77
2017-12-03T11:17:52.936Z,15.10
2017-12-03T11:20:21.398Z,16.30
2017-12-03T11:22:50.250Z,12.87
2017-12-03T11:25:18.620Z,14.40
2017-12-03T11:27:47.577Z,14.23
2017-12-03T11:30:15.349Z,14.80
2017-12-03T11:32:43.149Z,13.20
2017-12-03T11:35:11.153Z,14.07
2017-12-03T11:37:38.879Z,14.20
2017-12-03T11:40:06.665Z,15.20
2017-12-03T11:42:34.232Z,17.03
2017-12-03T11:45:02.376Z,19.17
2017-12-03T11:47:30.806Z,16.07
2017-12-03T11:49:58.387Z,18.10
2017-12-03T11:52:27.052Z,19.50
2017-12-03T11:54:54.569Z,16.30
2017-12-03T11:57:22.091Z,14.40
2017-12-03T11:59:50.176Z,18.80
2017-12-03T12:02:19.033Z,19.87
2017-12-03T12:04:47.381Z,19.50
2017-12-03T12:07:15.212Z,14.30
2017-12-03T12:09:42.771Z,19.80
2017-12-03T12:12:11.369Z,18.50
2017-12-03T12:14:40.922Z,19.63
2017-12-03T12:17:08.892Z,20.97
2017-12-03T12:19:36.564Z,20.77
2017-12-03T12:22:04.144Z,19.10
2017-12-03T12:24:32.584Z,24.70
2017-12-03T12:27:01.021Z,20.50
2017-12-03T12:29:29.753Z,17.67
2017-12-03T12:31:57.637Z,20.70
2017-12-03T12:34:25.177Z,19.80
2017-12-03T12:36:52.767Z,18.33
2017-12-03T12:39:20.612Z,16.57
2017-12-03T12:41:48.805Z,19.50
2017-12-03T12:44:16.347Z,19.17
2017-12-03T12:46:46.118Z,22.30
2017-12-03T12:49:13.650Z,18.10
2017-12-03T12:51:41.398Z,20.00
2017-12-03T12:54:09.817Z,21.60
2017-12-03T12:56:37.451Z,21.60
2017-12-03T12:59:05.013Z,21.20
2017-12-03T13:01:33.012Z,22.37
2017-12-03T13:04:00.741Z,24.90
2017-12-03T13:06:28.524Z,22.20
2017-12-03T13:08:56.410Z,22.77
2017-12-03T13:11:24.127Z,21.47
2017-12-03T13:13:53.327Z,18.43
2017-12-03T13:16:22.566Z,22.83
2017-12-03T13:18:50.875Z,22.47
2017-12-03T13:21:18.434Z,26.03
2017-12-03T13:23:47.608Z,22.47
2017-12-03T13:26:15.350Z,21.60
2017-12-03T13:28:43.546Z,23.80
2017-12-03T13:31:11.113Z,24.00
2017-12-03T13:33:39.685Z,18.90
2017-12-03T13:36:07.239Z,23.87
2017-12-03T13:38:35.660Z,21.37
2017-12-03T13:41:03.762Z,25.40
2017-12-03T13:43:31.287Z,21.63
2017-12-03T13:45:59.693Z,20.07
2017-12-03T13:48:27.494Z,21.20
2017-12-03T13:50:55.047Z,19.83
2017-12-03T13:53:22.680Z,22.40
2017-12-03T13:55:51.068Z,23.40
2017-12-03T13:58:19.210Z,21.90
2017-12-03T14:00:47.506Z,24.40
2017-12-03T14:03:16.305Z,19.60
2017-12-03T14:05:44.306Z,20.10
2017-12-03T14:08:12.983Z,19.50
2017-12-03T14:10:43.021Z,21.23
2017-12-03T14:13:11.636Z,21.83
2017-12-03T14:15:41.347Z,17.33
2017-12-03T14:18:09.629Z,16.50
2017-12-03T14:20:37.453Z,18.53
2017-12-03T14:23:05.059Z,17.17
2017-12-03T14:25:32.644Z,13.30
2017-12-03T14:28:01.025Z,16.63
2017-12-03T14:30:28.557Z,21.87
2017-12-03T14:32:56.127Z,15.37
2017-12-03T14:35:23.748Z,17.27
2017-12-03T14:37:51.528Z,18.40
2017-12-03T14:40:19.692Z,16.30
2017-12-03T14:42:47.838Z,13.57
2017-12-03T14:45:15.396Z,13.93
2017-12-03T14:47:42.991Z,17.60
2017-12-03T14:50:10.906Z,12.90
2017-12-03T14:52:38.599Z,13.77
2017-12-03T14:55:06.370Z,14.00
2017-12-03T14:57:35.164Z,13.37
2017-12-03T15:00:02.853Z,13.30
2017-12-03T15:02:30.456Z,12.27
2017-12-03T15:04:58.070Z,14.10
2017-12-03T15:07:26.378Z,17.50
2017-12-03T15:09:54.754Z,19.73
2017-12-03T15:12:22.279Z,25.77
2017-12-03T15:14:50.592Z,27.30
2017-12-03T15:17:18.252Z,20.43
2017-12-03T15:19:46.518Z,24.57
2017-12-03T15:22:15.231Z,25.93
2017-12-03T15:24:43.747Z,22.03
2017-12-03T15:27:13.208Z,25.90
2017-12-03T15:29:40.770Z,25.17
2017-12-03T15:32:09.363Z,24.90
2017-12-03T15:34:37.770Z,28.27
2017-12-03T15:37:05.725Z,32.00
2017-12-03T15:39:35.762Z,30.63
2017-12-03T15:42:04.618Z,25.90
2017-12-03T15:44:32.988Z,28.87
2017-12-03T15:47:00.592Z,29.87
2017-12-03T15:49:28.530Z,28.67
2017-12-03T15:51:56.196Z,26.00
2017-12-03T15:54:23.773Z,23.93
2017-12-03T15:56:51.445Z,23.60
2017-12-03T15:59:20.743Z,25.20
2017-12-03T16:01:48.716Z,23.77
2017-12-03T16:04:17.486Z,24.53
2017-12-03T16:06:45.048Z,29.10
2017-12-03T16:09:13.862Z,25.70
2017-12-03T16:11:41.406Z,26.40
2017-12-03T16:14:12.520Z,19.10
2017-12-03T16:16:40.134Z,24.50
2017-12-03T16:19:08.479Z,27.07
2017-12-03T16:21:36.063Z,28.30
2017-12-03T16:24:04.611Z,29.70
2017-12-03T16:26:32.245Z,28.50
2017-12-03T16:28:59.836Z,26.10
2017-12-03T16:31:27.525Z,30.37
2017-12-03T16:33:55.079Z,26.50
2017-12-03T16:36:24.561Z,32.03
2017-12-03T16:38:52.285Z,28.73
2017-12-03T16:41:19.830Z,25.13
2017-12-03T16:43:48.229Z,23.03
2017-12-03T16:46:15.871Z,23.40
2017-12-03T16:48:44.476Z,19.57
2017-12-03T16:51:13.640Z,16.60
2017-12-03T16:53:41.469Z,23.03
2017-12-03T16:56:09.335Z,16.03
2017-12-03T16:58:36.933Z,18.33
2017-12-03T17:01:05.531Z,23.17
2017-12-03T17:03:33.868Z,18.93
2017-12-03T17:06:01.464Z,18.33
2017-12-03T17:08:29.239Z,16.63
2017-12-03T17:10:58.258Z,16.07
2017-12-03T17:13:26.624Z,19.33
2017-12-03T17:15:54.200Z,20.90
2017-12-03T17:18:21.883Z,16.77
2017-12-03T17:20:49.485Z,19.10
2017-12-03T17:23:16.996Z,15.37
2017-12-03T17:25:44.622Z,22.27
2017-12-03T17:28:12.976Z,21.07
2017-12-03T17:30:40.979Z,21.27
2017-12-03T17:33:08.554Z,18.77
2017-12-03T17:35:36.447Z,29.13
2017-12-03T17:38:04.007Z,19.10
2017-12-03T17:40:31.599Z,20.77
2017-12-03T17:42:59.193Z,22.13
2017-12-03T17:45:26.719Z,22.33
2017-12-03T17:47:54.250Z,21.50
2017-12-03T17:50:21.933Z,23.57
2017-12-03T17:52:49.537Z,25.93
2017-12-03T17:55:17.314Z,20.77
2017-12-03T17:57:44.911Z,22.47
2017-12-03T18:00:13.364Z,22.30
2017-12-03T18:02:41.534Z,27.30
2017-12-03T18:05:10.940Z,23.20
2017-12-03T18:07:39.104Z,21.83
2017-12-03T18:10:07.394Z,26.80
2017-12-03T18:12:35.061Z,27.50
2017-12-03T18:15:02.666Z,24.03
2017-12-03T18:17:30.959Z,25.53
2017-12-03T18:19:58.569Z,34.27
2017-12-03T18:22:26.205Z,25.60
2017-12-03T18:24:54.087Z,30.90
2017-12-03T18:27:22.055Z,24.97
2017-12-03T18:29:50.558Z,23.80
2017-12-03T18:32:18.091Z,24.63
2017-12-03T18:34:45.941Z,25.90
2017-12-03T18:37:13.538Z,23.70
2017-12-03T18:39:42.085Z,22.87
2017-12-03T18:42:09.762Z,29.43
2017-12-03T18:44:37.308Z,23.40
2017-12-03T18:47:04.860Z,23.17
2017-12-03T18:49:32.501Z,22.47
2017-12-03T18:52:00.101Z,38.67
2017-12-03T18:54:27.740Z,22.63
2017-12-03T18:56:57.199Z,27.73
2017-12-03T18:59:25.208Z,31.20
2017-12-03T19:01:53.624Z,26.07
2017-12-03T19:04:21.318Z,22.73
2017-12-03T19:06:48.939Z,23.57
2017-12-03T19:09:16.609Z,21.90
2017-12-03T19:11:44.432Z,22.20
2017-12-03T19:14:13.207Z,25.50
2017-12-03T19:16:40.875Z,22.47
2017-12-03T19:19:09.187Z,25.70
2017-12-03T19:21:36.766Z,23.33
2017-12-03T19:24:04.466Z,23.83
2017-12-03T19:26:32.796Z,18.67
2017-12-03T19:29:00.423Z,26.07
2017-12-03T19:31:28.848Z,23.00
2017-12-03T19:33:56.438Z,22.30
2017-12-03T19:36:24.886Z,21.63
2017-12-03T19:38:52.520Z,24.77
2017-12-03T19:41:20.107Z,23.83
2017-12-03T19:43:47.676Z,21.20
2017-12-03T19:46:15.916Z,19.33
2017-12-03T19:48:44.324Z,23.77
2017-12-03T19:51:12.901Z,20.07
2017-12-03T19:53:40.545Z,20.00
2017-12-03T19:56:08.180Z,19.13
2017-12-03T19:58:35.788Z,23.60
2017-12-03T20:01:03.405Z,22.70
2017-12-03T20:03:31.033Z,19.70
2017-12-03T20:05:58.653Z,20.17
2017-12-03T20:08:26.454Z,22.10
2017-12-03T20:10:54.356Z,20.60
2017-12-03T20:13:22.741Z,21.90
2017-12-03T20:15:50.577Z,27.33
2017-12-03T20:18:18.221Z,26.77
2017-12-03T20:20:45.797Z,22.03
2017-12-03T20:23:13.467Z,24.50
2017-12-03T20:25:41.239Z,21.57
2017-12-03T20:28:12.177Z,22.50
2017-12-03T20:30:39.905Z,23.17
2017-12-03T20:33:07.429Z,26.27
2017-12-03T20:35:35.565Z,31.03
2017-12-03T20:38:06.154Z,25.30
2017-12-03T20:40:33.752Z,27.70
2017-12-03T20:43:01.343Z,25.30
2017-12-03T20:45:30.234Z,25.50
2017-12-03T20:47:57.780Z,25.23
2017-12-03T20:50:25.554Z,48.13
2017-12-03T20:52:53.189Z,40.47
2017-12-03T20:55:20.825Z,54.80
2017-12-03T20:57:48.598Z,43.97
2017-12-03T21:00:16.425Z,34.90
2017-12-03T21:02:45.200Z,41.60
2017-12-03T21:05:12.912Z,27.70
2017-12-03T21:07:41.014Z,40.57
2017-12-03T21:10:09.349Z,31.57
2017-12-03T21:12:36.894Z,42.57
2017-12-03T21:15:05.038Z,23.23
2017-12-03T21:17:32.596Z,22.23
2017-12-03T21:20:01.603Z,33.60
2017-12-03T21:22:29.296Z,25.23
2017-12-03T21:24:56.894Z,28.37
2017-12-03T21:27:24.486Z,27.97
2017-12-03T21:29:53.017Z,25.57
2017-12-03T21:32:20.627Z,26.50
2017-12-03T21:34:48.249Z,31.17
2017-12-03T21:37:16.920Z,26.20
2017-12-03T21:39:44.470Z,29.17
2017-12-03T21:42:12.958Z,28.93
2017-12-03T21:44:41.536Z,25.63
2017-12-03T21:47:09.311Z,27.93
2017-12-03T21:49:36.859Z,28.87
2017-12-03T21:52:04.649Z,27.00
2017-12-03T21:54:32.216Z,28.30
2017-12-03T21:56:59.838Z,33.20
2017-12-03T21:59:27.434Z,31.30
2017-12-03T22:01:55.706Z,33.73
2017-12-03T22:04:24.088Z,30.60
2017-12-03T22:06:52.005Z,30.90
2017-12-03T22:09:20.424Z,34.30
2017-12-03T22:11:47.957Z,38.43
2017-12-03T22:14:15.570Z,38.33
2017-12-03T22:16:43.106Z,37.10
2017-12-03T22:19:10.987Z,33.33
2017-12-03T22:21:39.200Z,33.63
2017-12-03T22:24:06.908Z,31.90
2017-12-03T22:26:34.441Z,35.13
2017-12-03T22:29:02.019Z,34.07
2017-12-03T22:31:31.325Z,30.80
2017-12-03T22:33:58.868Z,33.30
2017-12-03T22:36:27.847Z,33.50
2017-12-03T22:38:55.959Z,29.63
2017-12-03T22:41:23.659Z,28.70
2017-12-03T22:43:52.489Z,30.80
2017-12-03T22:46:20.074Z,30.07
2017-12-03T22:48:47.657Z,29.83
2017-12-03T22:51:15.632Z,29.03
2017-12-03T22:53:46.338Z,28.60
2017-12-03T22:56:13.893Z,30.93
2017-12-03T22:58:41.495Z,29.77
2017-12-03T23:01:09.799Z,26.20
2017-12-03T23:03:37.657Z,32.17
2017-12-03T23:06:06.308Z,26.60
2017-12-03T23:08:33.977Z,25.27
2017-12-03T23:11:04.367Z,23.67
2017-12-03T23:13:33.017Z,23.53
2017-12-03T23:16:00.628Z,23.87
2017-12-03T23:18:28.306Z,22.03
2017-12-03T23:20:55.919Z,25.30
2017-12-03T23:23:23.515Z,22.57
2017-12-03T23:25:51.208Z,20.47
2017-12-03T23:28:18.744Z,24.47
2017-12-03T23:30:46.451Z,25.83
2017-12-03T23:33:14.047Z,24.00
2017-12-03T23:35:41.623Z,18.57
2017-12-03T23:38:10.297Z,19.40
2017-12-03T23:40:38.055Z,19.10
2017-12-03T23:43:06.218Z,19.90
2017-12-03T23:45:33.841Z,21.80
2017-12-03T23:48:02.198Z,22.97
2017-12-03T23:50:29.746Z,19.67
2017-12-03T23:52:57.457Z,21.80
2017-12-03T23:55:25.814Z,19.67
2017-12-03T23:57:53.363Z,19.40
